createdAt,value
2018-08-04T00:00:22.480Z,32.28
2018-08-04T00:01:22.519Z,32.31
2018-08-04T00:02:22.811Z,32.28
2018-08-04T00:03:22.595Z,32.21
2018-08-04T00:04:22.626Z,32.21
2018-08-04T00:05:22.713Z,32.25
2018-08-04T00:06:22.677Z,32.19
2018-08-04T00:07:22.690Z,32.28
2018-08-04T00:08:22.721Z,32.27
2018-08-04T00:09:23.066Z,32.19
2018-08-04T00:10:22.847Z,32.17
2018-08-04T00:11:22.888Z,32.31
2018-08-04T00:12:22.936Z,32.25
2018-08-04T00:13:22.909Z,32.24
2018-08-04T00:14:22.998Z,32.27
2018-08-04T00:15:23.035Z,32.14
2018-08-04T00:16:23.015Z,32.22
2018-08-04T00:17:23.104Z,32.24
2018-08-04T00:18:23.096Z,32.27
2018-08-04T00:19:23.282Z,32.25
2018-08-04T00:20:23.217Z,32.28
2018-08-04T00:21:23.257Z,32.28
2018-08-04T00:22:23.241Z,32.24
2018-08-04T00:23:23.280Z,32.31
2018-08-04T00:24:23.364Z,32.29
2018-08-04T00:25:23.406Z,32.31
2018-08-04T00:26:23.396Z,32.28
2018-08-04T00:27:23.479Z,32.21
2018-08-04T00:28:23.809Z,32.28
2018-08-04T00:29:23.491Z,32.21
2018-08-04T00:30:23.532Z,32.25
2018-08-04T00:31:23.622Z,32.27
2018-08-04T00:32:23.606Z,32.19
2018-08-04T00:33:23.695Z,32.16
2018-08-04T00:34:23.983Z,32.16
2018-08-04T00:35:23.712Z,32.07
2018-08-04T00:36:23.800Z,32.10
2018-08-04T00:37:23.792Z,32.12
2018-08-04T00:38:23.878Z,32.14
2018-08-04T00:39:23.915Z,32.12
2018-08-04T00:40:23.948Z,32.12
2018-08-04T00:41:23.935Z,32.10
2018-08-04T00:42:24.026Z,32.05
2018-08-04T00:43:24.060Z,31.98
2018-08-04T00:44:24.041Z,32.03
2018-08-04T00:45:24.134Z,32.02
2018-08-04T00:46:24.165Z,31.98
2018-08-04T00:47:24.464Z,31.99
2018-08-04T00:48:24.239Z,32.03
2018-08-04T00:49:24.224Z,31.97
2018-08-04T00:50:24.262Z,31.97
2018-08-04T00:51:24.352Z,31.98
2018-08-04T00:52:24.488Z,32.02
2018-08-04T00:53:24.376Z,32.03
2018-08-04T00:54:24.718Z,31.97
2018-08-04T00:55:24.505Z,31.97
2018-08-04T00:56:24.484Z,31.88
2018-08-04T00:57:24.573Z,31.91
2018-08-04T00:58:24.658Z,31.91
2018-08-04T00:59:24.639Z,31.87
2018-08-04T01:00:24.679Z,31.84
2018-08-04T01:01:24.963Z,31.92
2018-08-04T01:02:24.706Z,31.87
2018-08-04T01:03:24.794Z,31.85
2018-08-04T01:04:24.820Z,31.87
2018-08-04T01:05:24.809Z,31.79
2018-08-04T01:06:24.902Z,31.90
2018-08-04T01:07:24.886Z,31.85
2018-08-04T01:08:25.222Z,31.78
2018-08-04T01:09:24.957Z,31.78
2018-08-04T01:10:25.019Z,31.74
2018-08-04T01:11:25.079Z,31.68
2018-08-04T01:12:25.066Z,31.69
2018-08-04T01:13:25.250Z,31.75
2018-08-04T01:14:25.143Z,31.74
2018-08-04T01:15:25.473Z,31.68
2018-08-04T01:16:25.208Z,31.74
2018-08-04T01:17:25.251Z,31.71
2018-08-04T01:18:25.334Z,31.68
2018-08-04T01:19:25.385Z,31.68
2018-08-04T01:20:25.359Z,31.65
2018-08-04T01:21:25.391Z,31.79
2018-08-04T01:22:25.428Z,31.74
2018-08-04T01:23:25.470Z,31.74
2018-08-04T01:24:25.553Z,31.67
2018-08-04T01:25:25.588Z,31.67
2018-08-04T01:26:25.589Z,31.65
2018-08-04T01:27:25.669Z,31.67
2018-08-04T01:28:25.953Z,31.64
2018-08-04T01:29:25.742Z,31.68
2018-08-04T01:30:25.722Z,31.65
2018-08-04T01:31:25.823Z,31.68
2018-08-04T01:32:25.844Z,31.69
2018-08-04T01:33:25.888Z,31.59
2018-08-04T01:34:26.165Z,31.68
2018-08-04T01:35:25.950Z,31.72
2018-08-04T01:36:25.945Z,31.57
2018-08-04T01:37:25.973Z,31.64
2018-08-04T01:38:26.068Z,31.72
2018-08-04T01:39:26.096Z,31.68
2018-08-04T01:40:26.382Z,31.65
2018-08-04T01:41:26.120Z,31.68
2018-08-04T01:42:26.163Z,31.72
2018-08-04T01:43:26.249Z,31.74
2018-08-04T01:44:26.282Z,31.67
2018-08-04T01:45:26.269Z,31.72
2018-08-04T01:46:26.353Z,31.72
2018-08-04T01:47:26.399Z,31.68
2018-08-04T01:48:26.379Z,31.67
2018-08-04T01:49:26.468Z,31.62
2018-08-04T01:50:26.453Z,31.60
2018-08-04T01:51:26.537Z,31.57
2018-08-04T01:52:26.868Z,31.57
2018-08-04T01:53:26.560Z,31.69
2018-08-04T01:54:26.644Z,31.60
2018-08-04T01:55:26.680Z,31.52
2018-08-04T01:56:26.672Z,31.60
2018-08-04T01:57:26.700Z,31.57
2018-08-04T01:58:26.744Z,31.57
2018-08-04T01:59:26.839Z,31.62
2018-08-04T02:00:26.866Z,31.62
2018-08-04T02:01:26.847Z,31.62
2018-08-04T02:02:26.882Z,31.62
2018-08-04T02:03:26.928Z,31.56
2018-08-04T02:04:27.102Z,31.59
2018-08-04T02:05:27.297Z,31.59
2018-08-04T02:06:27.025Z,31.64
2018-08-04T02:07:27.115Z,31.56
2018-08-04T02:08:27.112Z,31.57
2018-08-04T02:09:27.188Z,31.57
2018-08-04T02:10:27.178Z,31.60
2018-08-04T02:11:27.513Z,31.56
2018-08-04T02:12:27.248Z,31.57
2018-08-04T02:13:27.279Z,31.53
2018-08-04T02:14:27.368Z,31.54
2018-08-04T02:15:27.400Z,31.60
2018-08-04T02:16:27.486Z,31.64
2018-08-04T02:17:27.724Z,31.65
2018-08-04T02:18:27.466Z,31.65
2018-08-04T02:19:27.501Z,31.59
2018-08-04T02:20:27.550Z,31.57
2018-08-04T02:21:27.636Z,31.62
2018-08-04T02:22:27.609Z,31.65
2018-08-04T02:23:27.950Z,31.56
2018-08-04T02:24:27.685Z,31.67
2018-08-04T02:25:27.803Z,31.57
2018-08-04T02:26:27.800Z,31.53
2018-08-04T02:27:27.843Z,31.52
2018-08-04T02:28:27.934Z,31.57
2018-08-04T02:29:27.909Z,31.57
2018-08-04T02:30:28.198Z,31.53
2018-08-04T02:31:27.981Z,31.42
2018-08-04T02:32:28.014Z,31.54
2018-08-04T02:33:28.062Z,31.54
2018-08-04T02:34:28.088Z,31.42
2018-08-04T02:35:28.078Z,31.53
2018-08-04T02:36:28.162Z,31.42
2018-08-04T02:37:28.460Z,31.45
2018-08-04T02:38:28.191Z,31.56
2018-08-04T02:39:28.273Z,31.46
2018-08-04T02:40:28.309Z,31.57
2018-08-04T02:41:28.290Z,31.50
2018-08-04T02:42:28.333Z,31.45
2018-08-04T02:43:28.374Z,31.47
2018-08-04T02:45:28.538Z,31.45
2018-08-04T02:46:28.475Z,31.45
2018-08-04T02:47:28.585Z,31.53
2018-08-04T02:48:28.555Z,31.47
2018-08-04T02:49:28.585Z,31.45
2018-08-04T02:50:28.926Z,31.45
2018-08-04T02:51:28.706Z,31.47
2018-08-04T02:52:28.690Z,31.42
2018-08-04T02:53:28.779Z,31.47
2018-08-04T02:54:28.808Z,31.46
2018-08-04T02:55:28.856Z,31.46
2018-08-04T02:56:28.851Z,31.45
2018-08-04T02:59:29.293Z,31.41
2018-08-04T03:00:29.028Z,31.45
2018-08-04T03:01:29.017Z,31.41
2018-08-04T03:02:29.047Z,31.42
2018-08-04T03:03:29.138Z,31.41
2018-08-04T03:04:29.126Z,31.47
2018-08-04T03:07:29.284Z,31.42
2018-08-04T03:08:29.594Z,31.42
2018-08-04T03:09:29.304Z,31.41
2018-08-04T03:10:29.341Z,31.38
2018-08-04T03:11:29.441Z,31.46
2018-08-04T03:12:29.461Z,31.35
2018-08-04T03:13:29.448Z,31.41
2018-08-04T03:14:29.784Z,31.38
2018-08-04T03:15:29.566Z,31.40
2018-08-04T03:16:29.605Z,31.37
2018-08-04T03:17:29.588Z,31.40
2018-08-04T03:18:29.639Z,31.40
2018-08-04T03:19:29.667Z,31.42
2018-08-04T03:20:29.752Z,31.38
2018-08-04T03:22:30.072Z,31.35
2018-08-04T03:23:29.861Z,31.37
2018-08-04T03:24:29.892Z,31.40
2018-08-04T03:25:29.886Z,31.38
2018-08-04T03:26:29.915Z,31.37
2018-08-04T03:27:30.022Z,31.38
2018-08-04T03:28:30.335Z,31.46
2018-08-04T03:29:30.072Z,31.38
2018-08-04T03:30:30.060Z,31.35
2018-08-04T03:31:30.169Z,31.32
2018-08-04T03:32:30.179Z,31.41
2018-08-04T03:33:30.216Z,31.42
2018-08-04T03:34:30.198Z,31.46
2018-08-04T03:35:30.536Z,31.45
2018-08-04T03:36:30.274Z,31.25
2018-08-04T03:37:30.315Z,31.27
2018-08-04T03:38:30.345Z,31.35
2018-08-04T03:39:30.529Z,31.31
2018-08-04T03:40:30.479Z,31.34
2018-08-04T03:41:30.515Z,31.30
2018-08-04T03:42:30.796Z,31.34
2018-08-04T03:43:30.606Z,31.34
2018-08-04T03:44:30.557Z,31.28
2018-08-04T03:45:30.650Z,31.27
2018-08-04T03:46:30.643Z,31.34
2018-08-04T03:47:30.731Z,31.38
2018-08-04T03:48:30.703Z,31.28
2018-08-04T03:49:31.046Z,31.28
2018-08-04T03:50:30.831Z,31.38
2018-08-04T03:51:30.815Z,31.42
2018-08-04T03:52:30.894Z,31.38
2018-08-04T03:53:30.887Z,31.31
2018-08-04T03:54:30.925Z,31.37
2018-08-04T03:55:31.004Z,31.38
2018-08-04T03:56:31.047Z,31.42
2018-08-04T03:57:31.080Z,31.27
2018-08-04T03:58:31.070Z,31.37
2018-08-04T03:59:31.151Z,31.28
2018-08-04T04:00:31.137Z,31.31
2018-08-04T04:01:31.225Z,31.32
2018-08-04T04:02:31.602Z,31.35
2018-08-04T04:04:31.329Z,31.28
2018-08-04T04:05:31.318Z,31.23
2018-08-04T04:06:31.461Z,31.10
2018-08-04T04:07:31.439Z,31.18
2018-08-04T04:08:31.425Z,31.16
2018-08-04T04:09:31.761Z,31.05
2018-08-04T04:10:31.495Z,31.12
2018-08-04T04:11:31.586Z,31.13
2018-08-04T04:12:31.618Z,31.05
2018-08-04T04:13:31.660Z,31.10
2018-08-04T04:14:31.646Z,31.13
2018-08-04T04:15:31.987Z,31.13
2018-08-04T04:16:31.713Z,31.09
2018-08-04T04:17:31.746Z,31.15
2018-08-04T04:18:31.832Z,31.13
2018-08-04T04:19:31.870Z,31.16
2018-08-04T04:20:31.866Z,31.18
2018-08-04T04:21:32.188Z,31.16
2018-08-04T04:22:31.924Z,31.16
2018-08-04T04:23:32.009Z,31.20
2018-08-04T04:24:32.055Z,31.19
2018-08-04T04:25:32.036Z,31.15
2018-08-04T04:26:32.089Z,31.22
2018-08-04T04:27:32.410Z,31.22
2018-08-04T04:28:32.144Z,31.16
2018-08-04T04:29:32.235Z,31.18
2018-08-04T04:30:32.211Z,31.16
2018-08-04T04:32:32.286Z,31.15
2018-08-04T04:33:32.383Z,31.13
2018-08-04T04:34:32.655Z,31.15
2018-08-04T04:35:32.444Z,31.05
2018-08-04T04:36:32.481Z,31.07
2018-08-04T04:37:32.472Z,31.04
2018-08-04T04:38:32.502Z,31.05
2018-08-04T04:39:32.601Z,30.96
2018-08-04T04:40:32.630Z,31.01
2018-08-04T04:41:32.605Z,31.05
2018-08-04T04:42:32.642Z,31.00
2018-08-04T04:43:32.729Z,31.00
2018-08-04T04:44:32.713Z,30.97
2018-08-04T04:45:32.808Z,30.91
2018-08-04T04:46:32.794Z,31.00
2018-08-04T04:47:33.122Z,30.93
2018-08-04T04:48:32.930Z,30.98
2018-08-04T04:49:32.900Z,31.00
2018-08-04T04:50:32.936Z,30.98
2018-08-04T04:51:33.022Z,31.03
2018-08-04T04:52:33.011Z,31.03
2018-08-04T04:53:33.054Z,31.00
2018-08-04T04:54:33.386Z,30.98
2018-08-04T04:55:33.212Z,31.00
2018-08-04T04:56:33.196Z,30.97
2018-08-04T04:57:33.184Z,30.97
2018-08-04T04:58:33.295Z,31.00
2018-08-04T04:59:33.252Z,31.03
2018-08-04T05:00:33.339Z,31.00
2018-08-04T05:01:33.328Z,30.97
2018-08-04T05:02:33.364Z,30.93
2018-08-04T05:03:33.400Z,30.73
2018-08-04T05:04:33.443Z,30.79
2018-08-04T05:05:33.522Z,30.75
2018-08-04T05:06:33.502Z,30.64
2018-08-04T05:07:33.894Z,30.51
2018-08-04T05:08:33.576Z,30.54
2018-08-04T05:09:33.665Z,30.53
2018-08-04T05:10:33.710Z,30.46
2018-08-04T05:11:33.695Z,30.44
2018-08-04T05:12:33.723Z,30.40
2018-08-04T05:13:34.081Z,30.21
2018-08-04T05:14:33.797Z,30.23
2018-08-04T05:15:33.829Z,30.16
2018-08-04T05:16:33.920Z,30.19
2018-08-04T05:17:33.906Z,30.25
2018-08-04T05:18:33.934Z,30.13
2018-08-04T05:19:34.269Z,30.25
2018-08-04T05:20:34.061Z,30.22
2018-08-04T05:21:34.153Z,30.25
2018-08-04T05:22:34.080Z,30.28
2018-08-04T05:23:34.121Z,30.36
2018-08-04T05:24:34.150Z,30.38
2018-08-04T05:25:34.492Z,30.37
2018-08-04T05:26:34.267Z,30.38
2018-08-04T05:27:34.257Z,30.46
2018-08-04T05:28:34.291Z,30.45
2018-08-04T05:29:34.328Z,30.49
2018-08-04T05:30:34.568Z,30.42
2018-08-04T05:31:34.397Z,30.36
2018-08-04T05:32:34.740Z,30.44
2018-08-04T05:33:34.477Z,30.44
2018-08-04T05:34:34.567Z,30.45
2018-08-04T05:35:34.600Z,30.48
2018-08-04T05:36:34.575Z,30.54
2018-08-04T05:37:34.671Z,30.49
2018-08-04T05:38:34.651Z,30.46
2018-08-04T05:39:34.986Z,30.42
2018-08-04T05:40:34.767Z,30.44
2018-08-04T05:41:34.758Z,30.37
2018-08-04T05:42:34.790Z,30.30
2018-08-04T05:43:34.881Z,30.28
2018-08-04T05:44:34.917Z,30.30
2018-08-04T05:45:34.904Z,30.25
2018-08-04T05:46:35.237Z,30.19
2018-08-04T05:47:35.019Z,30.19
2018-08-04T05:48:35.003Z,30.13
2018-08-04T05:49:35.094Z,30.15
2018-08-04T05:50:35.079Z,30.16
2018-08-04T05:51:35.115Z,30.19
2018-08-04T05:52:35.152Z,30.11
2018-08-04T05:53:35.488Z,30.22
2018-08-04T05:54:35.217Z,30.28
2018-08-04T05:55:35.313Z,30.29
2018-08-04T05:56:35.342Z,30.23
2018-08-04T05:57:35.325Z,30.13
2018-08-04T05:58:35.378Z,30.11
2018-08-04T05:59:35.405Z,30.19
2018-08-04T06:00:35.736Z,30.18
2018-08-04T06:01:35.521Z,30.15
2018-08-04T06:02:35.552Z,30.18
2018-08-04T06:03:35.538Z,30.15
2018-08-04T06:04:36.254Z,30.30
2018-08-04T06:05:35.818Z,30.22
2018-08-04T06:06:35.654Z,30.34
2018-08-04T06:07:35.981Z,30.32
2018-08-04T06:08:35.772Z,30.34
2018-08-04T06:09:35.758Z,30.38
2018-08-04T06:10:35.843Z,30.45
2018-08-04T06:11:35.823Z,30.44
2018-08-04T06:12:35.914Z,30.46
2018-08-04T06:13:35.901Z,30.53
2018-08-04T06:14:36.250Z,30.48
2018-08-04T06:15:35.972Z,30.48
2018-08-04T06:16:36.053Z,30.54
2018-08-04T06:17:36.098Z,30.56
2018-08-04T06:18:36.083Z,30.53
2018-08-04T06:19:36.159Z,30.51
2018-08-04T06:22:36.570Z,30.53
2018-08-04T06:23:36.265Z,30.60
2018-08-04T06:24:36.293Z,30.64
2018-08-04T06:25:36.323Z,30.61
2018-08-04T06:26:36.359Z,30.67
2018-08-04T06:27:36.400Z,30.70
2018-08-04T06:28:36.494Z,30.64
2018-08-04T06:29:36.469Z,30.63
2018-08-04T06:30:36.562Z,30.76
2018-08-04T06:31:36.539Z,30.82
2018-08-04T06:32:36.579Z,30.79
2018-08-04T06:33:36.659Z,30.81
2018-08-04T06:34:36.648Z,30.76
2018-08-04T06:35:36.990Z,30.91
2018-08-04T06:37:36.759Z,30.86
2018-08-04T06:38:36.842Z,30.88
2018-08-04T06:39:36.832Z,30.96
2018-08-04T06:40:36.863Z,30.93
2018-08-04T06:41:36.938Z,30.94
2018-08-04T06:42:37.234Z,30.93
2018-08-04T06:43:36.976Z,30.94
2018-08-04T06:44:37.060Z,31.00
2018-08-04T06:45:37.041Z,31.03
2018-08-04T06:46:37.081Z,31.05
2018-08-04T06:47:37.121Z,31.05
2018-08-04T06:48:37.457Z,31.04
2018-08-04T06:49:37.244Z,31.09
2018-08-04T06:50:37.223Z,31.13
2018-08-04T06:51:37.261Z,31.12
2018-08-04T06:52:37.301Z,31.23
2018-08-04T06:53:37.347Z,31.18
2018-08-04T06:54:37.724Z,31.18
2018-08-04T06:55:37.405Z,31.20
2018-08-04T06:56:37.509Z,31.27
2018-08-04T06:57:37.486Z,31.30
2018-08-04T06:58:37.533Z,31.28
2018-08-04T06:59:37.607Z,31.28
2018-08-04T07:00:37.891Z,31.41
2018-08-04T07:01:37.624Z,31.41
2018-08-04T07:02:37.665Z,31.40
2018-08-04T07:03:37.765Z,31.45
2018-08-04T07:04:37.747Z,31.42
2018-08-04T07:05:37.820Z,31.47
2018-08-04T07:06:37.811Z,31.46
2018-08-04T07:07:38.149Z,31.49
2018-08-04T07:08:37.876Z,31.40
2018-08-04T07:09:37.969Z,31.46
2018-08-04T07:10:38.008Z,31.54
2018-08-04T07:11:37.993Z,31.53
2018-08-04T07:12:38.029Z,31.57
2018-08-04T07:13:38.068Z,31.57
2018-08-04T07:14:38.405Z,31.56
2018-08-04T07:15:38.139Z,31.65
2018-08-04T07:16:38.221Z,31.57
2018-08-04T07:17:38.254Z,31.62
2018-08-04T07:18:38.245Z,31.53
2018-08-04T07:20:38.322Z,31.60
2018-08-04T07:21:38.656Z,31.64
2018-08-04T07:22:38.436Z,31.67
2018-08-04T07:24:38.464Z,31.67
2018-08-04T07:25:38.508Z,31.68
2018-08-04T07:26:38.582Z,31.67
2018-08-04T07:27:38.576Z,31.64
2018-08-04T07:28:38.956Z,31.67
2018-08-04T07:29:38.648Z,31.69
2018-08-04T07:30:38.683Z,31.69
2018-08-04T07:31:38.713Z,31.72
2018-08-04T07:32:38.806Z,31.74
2018-08-04T07:33:38.791Z,31.75
2018-08-04T07:34:38.871Z,31.69
2018-08-04T07:35:39.165Z,31.72
2018-08-04T07:36:38.958Z,31.75
2018-08-04T07:37:38.985Z,31.71
2018-08-04T07:38:38.975Z,31.79
2018-08-04T07:39:39.009Z,31.71
2018-08-04T07:40:39.047Z,31.74
2018-08-04T07:41:39.080Z,31.85
2018-08-04T07:42:39.165Z,31.72
2018-08-04T07:43:39.198Z,31.75
2018-08-04T07:44:39.237Z,31.76
2018-08-04T07:45:39.226Z,31.79
2018-08-04T07:46:39.273Z,31.84
2018-08-04T07:47:39.348Z,31.78
2018-08-04T07:48:39.633Z,31.90
2018-08-04T07:49:39.419Z,31.90
2018-08-04T07:50:39.463Z,31.91
2018-08-04T07:51:39.445Z,31.85
2018-08-04T07:52:39.534Z,31.91
2018-08-04T07:53:39.579Z,31.92
2018-08-04T07:54:39.549Z,31.87
2018-08-04T07:55:39.946Z,31.92
2018-08-04T07:56:39.677Z,31.82
2018-08-04T07:57:39.715Z,31.88
2018-08-04T07:58:39.703Z,31.95
2018-08-04T07:59:39.786Z,31.82
2018-08-04T08:00:39.767Z,31.91
2018-08-04T08:01:40.164Z,31.90
2018-08-04T08:02:39.847Z,31.90
2018-08-04T08:03:39.878Z,31.90
2018-08-04T08:04:39.915Z,31.97
2018-08-04T08:05:39.958Z,31.94
2018-08-04T08:06:40.040Z,31.91
2018-08-04T08:07:40.327Z,31.94
2018-08-04T08:08:40.064Z,31.94
2018-08-04T08:09:40.099Z,31.95
2018-08-04T08:10:40.294Z,31.92
2018-08-04T08:11:40.228Z,31.92
2018-08-04T08:12:40.262Z,31.98
2018-08-04T08:13:40.551Z,31.98
2018-08-04T08:14:40.283Z,31.98
2018-08-04T08:15:40.320Z,31.97
2018-08-04T08:16:40.447Z,31.97
2018-08-04T08:17:40.400Z,31.98
2018-08-04T08:18:40.429Z,31.98
2018-08-04T08:19:40.475Z,31.98
2018-08-04T08:20:40.849Z,31.97
2018-08-04T08:21:40.537Z,32.06
2018-08-04T08:22:40.923Z,32.02
2018-08-04T08:23:40.617Z,32.02
2018-08-04T08:24:40.655Z,31.99
2018-08-04T08:25:40.685Z,31.99
2018-08-04T08:26:40.720Z,31.99
2018-08-04T08:27:41.057Z,31.95
2018-08-04T08:28:40.851Z,31.98
2018-08-04T08:29:40.885Z,32.06
2018-08-04T08:30:40.868Z,32.03
2018-08-04T08:31:40.951Z,32.06
2018-08-04T08:32:40.993Z,32.10
2018-08-04T08:33:41.029Z,32.03
2018-08-04T08:34:41.314Z,32.12
2018-08-04T08:35:41.044Z,32.09
2018-08-04T08:36:41.087Z,32.10
2018-08-04T08:37:41.179Z,32.12
2018-08-04T08:38:41.162Z,32.14
2018-08-04T08:39:41.197Z,32.12
2018-08-04T08:40:41.234Z,32.12
2018-08-04T08:41:41.571Z,32.12
2018-08-04T08:42:41.351Z,32.07
2018-08-04T08:43:41.344Z,32.14
2018-08-04T08:44:41.374Z,32.12
2018-08-04T08:45:41.418Z,32.13
2018-08-04T08:46:41.502Z,32.09
2018-08-04T08:47:41.488Z,32.10
2018-08-04T08:48:41.820Z,32.09
2018-08-04T08:49:41.565Z,32.10
2018-08-04T08:50:41.603Z,32.17
2018-08-04T08:51:41.689Z,32.13
2018-08-04T08:52:41.729Z,32.07
2018-08-04T08:53:41.777Z,32.21
2018-08-04T08:54:41.743Z,32.14
2018-08-04T08:55:42.099Z,32.14
2018-08-04T08:56:41.870Z,32.16
2018-08-04T08:57:41.918Z,32.17
2018-08-04T08:58:41.889Z,32.16
2018-08-04T08:59:41.984Z,32.17
2018-08-04T09:00:41.961Z,32.17
2018-08-04T09:01:42.051Z,32.19
2018-08-04T09:02:42.036Z,32.16
2018-08-04T09:03:42.126Z,32.16
2018-08-04T09:04:42.114Z,32.14
2018-08-04T09:05:42.148Z,32.14
2018-08-04T09:07:42.219Z,32.25
2018-08-04T09:08:42.673Z,32.22
2018-08-04T09:09:42.340Z,32.25
2018-08-04T09:10:42.377Z,32.28
2018-08-04T09:11:42.367Z,32.16
2018-08-04T09:12:42.456Z,32.24
2018-08-04T09:13:42.435Z,32.24
2018-08-04T09:14:42.796Z,32.16
2018-08-04T09:15:42.591Z,32.25
2018-08-04T09:16:42.617Z,32.25
2018-08-04T09:17:42.655Z,32.14
2018-08-04T09:18:42.621Z,32.25
2018-08-04T09:19:42.661Z,32.21
2018-08-04T09:20:42.999Z,32.28
2018-08-04T09:21:42.737Z,32.27
2018-08-04T09:22:42.819Z,32.28
2018-08-04T09:23:42.850Z,32.34
2018-08-04T09:24:42.891Z,32.31
2018-08-04T09:25:43.248Z,32.28
2018-08-04T09:26:43.266Z,32.25
2018-08-04T09:27:42.947Z,32.29
2018-08-04T09:28:42.983Z,32.24
2018-08-04T09:29:43.078Z,32.34
2018-08-04T09:30:43.163Z,32.28
2018-08-04T09:31:43.101Z,32.31
2018-08-04T09:32:43.138Z,32.29
2018-08-04T09:33:43.474Z,32.27
2018-08-04T09:34:43.269Z,32.27
2018-08-04T09:35:43.252Z,32.27
2018-08-04T09:36:43.279Z,32.29
2018-08-04T09:37:44.102Z,32.32
2018-08-04T09:38:43.668Z,32.32
2018-08-04T09:39:43.720Z,32.35
2018-08-04T09:40:44.627Z,32.32
2018-08-04T09:41:43.737Z,32.29
2018-08-04T09:42:43.504Z,32.39
2018-08-04T09:43:43.590Z,32.39
2018-08-04T09:44:43.629Z,32.36
2018-08-04T09:45:43.659Z,32.41
2018-08-04T09:46:43.695Z,32.31
2018-08-04T09:47:43.986Z,32.34
2018-08-04T09:48:43.782Z,32.41
2018-08-04T09:49:43.759Z,32.40
2018-08-04T09:50:43.797Z,32.32
2018-08-04T09:51:43.836Z,32.35
2018-08-04T09:52:43.868Z,32.41
2018-08-04T09:53:43.958Z,32.34
2018-08-04T09:54:43.941Z,32.41
2018-08-04T09:55:43.975Z,32.34
2018-08-04T09:56:44.013Z,32.34
2018-08-04T09:57:44.056Z,32.36
2018-08-04T09:58:44.149Z,32.35
2018-08-04T09:59:44.180Z,32.32
2018-08-04T10:00:44.512Z,32.35
2018-08-04T10:01:44.225Z,32.36
2018-08-04T10:02:44.252Z,32.35
2018-08-04T10:03:44.275Z,32.40
2018-08-04T10:04:44.359Z,32.49
2018-08-04T10:05:44.351Z,32.50
2018-08-04T10:06:44.411Z,32.44
2018-08-04T10:07:44.721Z,32.46
2018-08-04T10:08:44.510Z,32.43
2018-08-04T10:09:44.550Z,32.47
2018-08-04T10:10:44.531Z,32.46
2018-08-04T10:11:44.572Z,32.47
2018-08-04T10:12:44.657Z,32.46
2018-08-04T10:13:44.654Z,32.46
2018-08-04T10:14:45.040Z,32.47
2018-08-04T10:15:44.775Z,32.54
2018-08-04T10:16:44.750Z,32.50
2018-08-04T10:17:44.792Z,32.50
2018-08-04T10:18:44.832Z,32.44
2018-08-04T10:19:44.865Z,32.53
2018-08-04T10:20:44.951Z,32.56
2018-08-04T10:21:45.245Z,32.53
2018-08-04T10:22:45.050Z,32.54
2018-08-04T10:23:45.011Z,32.54
2018-08-04T10:24:45.104Z,32.58
2018-08-04T10:25:45.140Z,32.53
2018-08-04T10:26:45.122Z,32.51
2018-08-04T10:27:45.474Z,32.56
2018-08-04T10:28:45.193Z,32.53
2018-08-04T10:29:45.289Z,32.50
2018-08-04T10:30:45.270Z,32.56
2018-08-04T10:31:45.312Z,32.53
2018-08-04T10:32:45.452Z,32.51
2018-08-04T10:33:45.692Z,32.58
2018-08-04T10:34:45.424Z,32.56
2018-08-04T10:35:45.561Z,32.59
2018-08-04T10:36:45.498Z,32.66
2018-08-04T10:38:45.640Z,32.63
2018-08-04T10:39:45.907Z,32.66
2018-08-04T10:40:45.646Z,32.62
2018-08-04T10:41:45.727Z,32.63
2018-08-04T10:42:45.711Z,32.61
2018-08-04T10:43:45.807Z,32.62
2018-08-04T10:44:45.845Z,32.61
2018-08-04T10:45:45.821Z,32.69
2018-08-04T10:46:46.158Z,32.58
2018-08-04T10:47:46.055Z,32.59
2018-08-04T10:48:45.987Z,32.59
2018-08-04T10:49:45.976Z,32.73
2018-08-04T10:50:46.008Z,32.68
2018-08-04T10:51:46.049Z,32.69
2018-08-04T10:52:46.134Z,32.71
2018-08-04T10:53:46.427Z,32.68
2018-08-04T10:54:46.164Z,32.69
2018-08-04T10:55:46.199Z,32.71
2018-08-04T10:56:46.293Z,32.73
2018-08-04T10:57:46.324Z,32.62
2018-08-04T10:59:46.342Z,32.77
2018-08-04T11:00:46.388Z,32.76
2018-08-04T11:01:46.424Z,32.66
2018-08-04T11:02:46.500Z,32.77
2018-08-04T11:03:46.505Z,32.77
2018-08-04T11:04:46.594Z,32.80
2018-08-04T11:05:46.565Z,32.68
2018-08-04T11:06:46.898Z,32.80
2018-08-04T11:07:46.640Z,32.78
2018-08-04T11:08:46.723Z,32.77
2018-08-04T11:09:46.716Z,32.77
2018-08-04T11:10:46.773Z,32.83
2018-08-04T11:11:46.798Z,32.80
2018-08-04T11:12:46.826Z,32.69
2018-08-04T11:13:47.159Z,32.71
2018-08-04T11:14:47.485Z,32.77
2018-08-04T11:15:46.940Z,32.77
2018-08-04T11:16:46.975Z,32.81
2018-08-04T11:17:47.018Z,32.77
2018-08-04T11:18:47.094Z,32.76
2018-08-04T11:19:47.091Z,32.71
2018-08-04T11:20:47.477Z,32.65
2018-08-04T11:21:47.155Z,32.73
2018-08-04T11:22:47.208Z,32.72
2018-08-04T11:23:47.234Z,32.72
2018-08-04T11:24:47.316Z,32.72
2018-08-04T11:25:47.304Z,32.73
2018-08-04T11:26:47.345Z,32.77
2018-08-04T11:27:47.687Z,32.69
2018-08-04T11:28:47.475Z,32.66
2018-08-04T11:29:47.807Z,32.84
2018-08-04T11:30:47.593Z,32.80
2018-08-04T11:31:47.534Z,32.77
2018-08-04T11:32:47.576Z,32.81
2018-08-04T11:33:47.655Z,32.85
2018-08-04T11:35:47.683Z,32.76
2018-08-04T11:36:47.762Z,32.73
2018-08-04T11:37:47.850Z,32.76
2018-08-04T11:38:47.805Z,32.73
2018-08-04T11:39:47.839Z,32.77
2018-08-04T11:40:48.165Z,32.84
2018-08-04T11:41:47.952Z,32.73
2018-08-04T11:42:47.994Z,32.76
2018-08-04T11:43:48.031Z,32.83
2018-08-04T11:44:48.071Z,32.80
2018-08-04T11:45:48.051Z,32.84
2018-08-04T11:46:48.384Z,32.83
2018-08-04T11:47:48.180Z,32.84
2018-08-04T11:48:48.171Z,32.87
2018-08-04T11:49:48.249Z,32.90
2018-08-04T11:50:48.232Z,32.84
2018-08-04T11:51:48.285Z,32.84
2018-08-04T11:52:48.612Z,32.76
2018-08-04T11:53:48.402Z,32.84
2018-08-04T11:54:48.435Z,32.84
2018-08-04T11:55:48.416Z,32.87
2018-08-04T11:56:48.522Z,32.81
2018-08-04T11:57:48.545Z,32.84
2018-08-04T11:58:48.591Z,32.88
2018-08-04T11:59:48.868Z,32.85
2018-08-04T12:00:48.602Z,32.77
2018-08-04T12:01:48.709Z,32.87
2018-08-04T12:02:48.689Z,32.85
2018-08-04T12:03:48.721Z,32.90
2018-08-04T12:04:48.752Z,32.90
2018-08-04T12:05:48.838Z,32.93
2018-08-04T12:06:49.131Z,32.87
2018-08-04T12:07:48.918Z,32.88
2018-08-04T12:08:48.956Z,32.90
2018-08-04T12:09:48.939Z,32.93
2018-08-04T12:10:49.039Z,32.90
2018-08-04T12:11:49.079Z,32.93
2018-08-04T12:12:49.105Z,32.93
2018-08-04T12:13:49.393Z,32.96
2018-08-04T12:14:49.136Z,32.96
2018-08-04T12:15:49.172Z,32.93
2018-08-04T12:16:49.254Z,33.00
2018-08-04T12:17:49.240Z,32.93
2018-08-04T12:18:49.281Z,32.98
2018-08-04T12:19:49.374Z,32.91
2018-08-04T12:20:49.656Z,32.95
2018-08-04T12:21:49.454Z,32.99
2018-08-04T12:22:49.479Z,32.95
2018-08-04T12:23:49.520Z,32.99
2018-08-04T12:24:49.504Z,32.99
2018-08-04T12:25:49.539Z,33.00
2018-08-04T12:26:49.626Z,33.02
2018-08-04T12:27:49.962Z,32.96
2018-08-04T12:28:49.650Z,33.06
2018-08-04T12:29:49.750Z,33.06
2018-08-04T12:30:49.732Z,33.00
2018-08-04T12:31:49.767Z,33.02
2018-08-04T12:32:49.851Z,33.02
2018-08-04T12:34:49.877Z,32.96
2018-08-04T12:35:50.265Z,33.07
2018-08-04T12:36:49.997Z,33.02
2018-08-04T12:37:50.073Z,33.05
2018-08-04T12:38:50.090Z,32.99
2018-08-04T12:39:50.115Z,33.00
2018-08-04T12:40:50.152Z,33.11
2018-08-04T12:41:50.198Z,33.09
2018-08-04T12:42:50.475Z,32.99
2018-08-04T12:43:50.286Z,33.09
2018-08-04T12:44:50.248Z,33.09
2018-08-04T12:45:50.339Z,33.09
2018-08-04T12:46:50.379Z,33.15
2018-08-04T12:47:50.357Z,33.03
2018-08-04T12:48:50.506Z,33.06
2018-08-04T12:49:50.734Z,33.07
2018-08-04T12:50:50.522Z,33.06
2018-08-04T12:51:50.573Z,33.07
2018-08-04T12:52:50.609Z,33.17
2018-08-04T12:53:50.637Z,33.11
2018-08-04T12:54:50.629Z,33.14
2018-08-04T12:55:50.715Z,33.11
2018-08-04T12:56:51.050Z,33.12
2018-08-04T12:57:50.735Z,33.09
2018-08-04T12:58:50.824Z,33.06
2018-08-04T12:59:50.873Z,33.18
2018-08-04T13:00:50.911Z,33.12
2018-08-04T13:01:50.947Z,33.15
2018-08-04T13:02:50.930Z,33.11
2018-08-04T13:04:51.007Z,33.07
2018-08-04T13:05:51.084Z,33.07
2018-08-04T13:06:51.078Z,33.12
2018-08-04T13:07:51.163Z,33.17
2018-08-04T13:08:51.219Z,33.22
2018-08-04T13:09:51.184Z,33.20
2018-08-04T13:10:51.585Z,33.17
2018-08-04T13:11:51.329Z,33.20